sensor_id;sensor_type;location;lat;lon;timestamp;P1;durP1;ratioP1;P2;durP2;ratioP2
57441;SDS011;43284;47.042;15.498;2023-05-17T00:01:04;1.58;;;0.90;;
57441;SDS011;43284;47.042;15.498;2023-05-17T00:03:29;2.67;;;1.08;;
57441;SDS011;43284;47.042;15.498;2023-05-17T00:05:55;2.17;;;1.27;;
57441;SDS011;43284;47.042;15.498;2023-05-17T00:08:20;1.45;;;0.90;;
57441;SDS011;43284;47.042;15.498;2023-05-17T00:10:46;4.30;;;0.98;;
57441;SDS011;43284;47.042;15.498;2023-05-17T00:13:11;1.77;;;1.10;;
57441;SDS011;43284;47.042;15.498;2023-05-17T00:15:37;1.70;;;1.13;;
57441;SDS011;43284;47.042;15.498;2023-05-17T00:18:03;1.17;;;0.85;;
57441;SDS011;43284;47.042;15.498;2023-05-17T00:20:28;4.25;;;1.20;;
57441;SDS011;43284;47.042;15.498;2023-05-17T00:22:54;3.33;;;1.10;;
57441;SDS011;43284;47.042;15.498;2023-05-17T00:25:19;1.45;;;0.80;;
57441;SDS011;43284;47.042;15.498;2023-05-17T00:27:45;0.95;;;0.82;;
57441;SDS011;43284;47.042;15.498;2023-05-17T00:30:10;2.08;;;1.23;;
57441;SDS011;43284;47.042;15.498;2023-05-17T00:32:36;2.80;;;0.90;;
57441;SDS011;43284;47.042;15.498;2023-05-17T00:35:02;3.30;;;1.33;;
57441;SDS011;43284;47.042;15.498;2023-05-17T00:37:27;1.95;;;1.10;;
57441;SDS011;43284;47.042;15.498;2023-05-17T00:39:53;3.28;;;1.13;;
57441;SDS011;43284;47.042;15.498;2023-05-17T00:42:19;1.38;;;1.00;;
57441;SDS011;43284;47.042;15.498;2023-05-17T00:44:44;4.57;;;0.98;;
57441;SDS011;43284;47.042;15.498;2023-05-17T00:47:10;2.03;;;0.70;;
57441;SDS011;43284;47.042;15.498;2023-05-17T00:49:35;1.85;;;1.17;;
57441;SDS011;43284;47.042;15.498;2023-05-17T00:52:01;1.25;;;0.98;;
57441;SDS011;43284;47.042;15.498;2023-05-17T00:54:26;3.95;;;1.90;;
57441;SDS011;43284;47.042;15.498;2023-05-17T00:56:53;1.40;;;1.10;;
57441;SDS011;43284;47.042;15.498;2023-05-17T00:59:21;1.35;;;1.08;;
57441;SDS011;43284;47.042;15.498;2023-05-17T01:01:47;2.20;;;1.13;;
57441;SDS011;43284;47.042;15.498;2023-05-17T01:04:13;1.77;;;0.90;;
57441;SDS011;43284;47.042;15.498;2023-05-17T01:06:38;0.90;;;0.65;;
57441;SDS011;43284;47.042;15.498;2023-05-17T01:09:04;1.73;;;1.60;;
57441;SDS011;43284;47.042;15.498;2023-05-17T01:17:01;3.13;;;1.85;;
57441;SDS011;43284;47.042;15.498;2023-05-17T01:24:49;3.38;;;1.90;;
57441;SDS011;43284;47.042;15.498;2023-05-17T01:27:25;3.80;;;1.55;;
57441;SDS011;43284;47.042;15.498;2023-05-17T01:29:54;3.03;;;1.98;;
57441;SDS011;43284;47.042;15.498;2023-05-17T01:32:21;3.65;;;2.10;;
57441;SDS011;43284;47.042;15.498;2023-05-17T01:34:49;7.35;;;2.67;;
57441;SDS011;43284;47.042;15.498;2023-05-17T01:37:15;3.70;;;1.90;;
57441;SDS011;43284;47.042;15.498;2023-05-17T01:39:40;4.28;;;1.70;;
57441;SDS011;43284;47.042;15.498;2023-05-17T01:47:12;3.03;;;2.53;;
57441;SDS011;43284;47.042;15.498;2023-05-17T01:49:45;3.53;;;2.33;;
57441;SDS011;43284;47.042;15.498;2023-05-17T01:52:18;6.50;;;2.65;;
57441;SDS011;43284;47.042;15.498;2023-05-17T01:57:40;1.60;;;1.40;;
57441;SDS011;43284;47.042;15.498;2023-05-17T02:00:09;3.05;;;1.55;;
57441;SDS011;43284;47.042;15.498;2023-05-17T02:02:36;2.35;;;1.70;;
57441;SDS011;43284;47.042;15.498;2023-05-17T02:05:02;3.15;;;1.63;;
57441;SDS011;43284;47.042;15.498;2023-05-17T02:07:28;3.70;;;1.83;;
57441;SDS011;43284;47.042;15.498;2023-05-17T02:09:53;3.42;;;1.42;;
57441;SDS011;43284;47.042;15.498;2023-05-17T02:12:19;5.63;;;2.10;;
57441;SDS011;43284;47.042;15.498;2023-05-17T02:14:44;2.95;;;2.03;;
57441;SDS011;43284;47.042;15.498;2023-05-17T02:17:10;3.25;;;2.40;;
57441;SDS011;43284;47.042;15.498;2023-05-17T02:19:35;3.53;;;2.03;;
57441;SDS011;43284;47.042;15.498;2023-05-17T02:22:01;3.47;;;2.00;;
57441;SDS011;43284;47.042;15.498;2023-05-17T02:24:26;2.47;;;1.90;;
57441;SDS011;43284;47.042;15.498;2023-05-17T02:26:52;3.58;;;2.03;;
57441;SDS011;43284;47.042;15.498;2023-05-17T02:29:18;2.65;;;1.80;;
57441;SDS011;43284;47.042;15.498;2023-05-17T02:31:43;2.97;;;1.75;;
57441;SDS011;43284;47.042;15.498;2023-05-17T02:34:10;3.35;;;2.17;;
57441;SDS011;43284;47.042;15.498;2023-05-17T02:36:35;2.92;;;2.22;;
57441;SDS011;43284;47.042;15.498;2023-05-17T02:39:01;5.47;;;2.28;;
57441;SDS011;43284;47.042;15.498;2023-05-17T02:41:26;3.20;;;2.15;;
57441;SDS011;43284;47.042;15.498;2023-05-17T02:43:52;3.92;;;1.83;;
57441;SDS011;43284;47.042;15.498;2023-05-17T02:46:17;3.60;;;2.15;;
57441;SDS011;43284;47.042;15.498;2023-05-17T02:48:43;2.70;;;2.03;;
57441;SDS011;43284;47.042;15.498;2023-05-17T02:51:08;3.85;;;1.73;;
57441;SDS011;43284;47.042;15.498;2023-05-17T02:53:34;3.55;;;1.92;;
57441;SDS011;43284;47.042;15.498;2023-05-17T02:56:00;2.25;;;1.65;;
57441;SDS011;43284;47.042;15.498;2023-05-17T02:58:25;3.17;;;1.73;;
57441;SDS011;43284;47.042;15.498;2023-05-17T03:00:51;3.08;;;1.38;;
57441;SDS011;43284;47.042;15.498;2023-05-17T03:03:17;2.60;;;1.70;;
57441;SDS011;43284;47.042;15.498;2023-05-17T03:05:42;4.68;;;1.63;;
57441;SDS011;43284;47.042;15.498;2023-05-17T03:08:08;2.65;;;1.58;;
57441;SDS011;43284;47.042;15.498;2023-05-17T03:10:34;2.42;;;1.50;;
57441;SDS011;43284;47.042;15.498;2023-05-17T03:12:59;1.45;;;1.17;;
57441;SDS011;43284;47.042;15.498;2023-05-17T03:15:25;4.65;;;1.60;;
57441;SDS011;43284;47.042;15.498;2023-05-17T03:17:53;4.50;;;1.27;;
57441;SDS011;43284;47.042;15.498;2023-05-17T03:20:22;2.22;;;1.70;;
57441;SDS011;43284;47.042;15.498;2023-05-17T03:22:47;1.55;;;1.30;;
57441;SDS011;43284;47.042;15.498;2023-05-17T03:25:13;2.20;;;1.50;;
57441;SDS011;43284;47.042;15.498;2023-05-17T03:27:39;2.80;;;1.48;;
57441;SDS011;43284;47.042;15.498;2023-05-17T03:30:05;2.17;;;1.60;;
57441;SDS011;43284;47.042;15.498;2023-05-17T03:32:31;2.33;;;1.65;;
57441;SDS011;43284;47.042;15.498;2023-05-17T03:34:56;2.05;;;1.27;;
57441;SDS011;43284;47.042;15.498;2023-05-17T03:37:22;5.38;;;1.48;;
57441;SDS011;43284;47.042;15.498;2023-05-17T03:39:47;1.27;;;1.13;;
57441;SDS011;43284;47.042;15.498;2023-05-17T03:42:13;9.55;;;3.42;;
57441;SDS011;43284;47.042;15.498;2023-05-17T03:44:39;14.68;;;6.28;;
57441;SDS011;43284;47.042;15.498;2023-05-17T03:47:05;6.63;;;3.17;;
57441;SDS011;43284;47.042;15.498;2023-05-17T03:49:31;7.22;;;2.42;;
57441;SDS011;43284;47.042;15.498;2023-05-17T03:51:56;4.28;;;2.45;;
57441;SDS011;43284;47.042;15.498;2023-05-17T03:54:22;3.97;;;2.50;;
57441;SDS011;43284;47.042;15.498;2023-05-17T03:56:47;2.60;;;1.73;;
57441;SDS011;43284;47.042;15.498;2023-05-17T03:59:14;4.07;;;1.70;;
57441;SDS011;43284;47.042;15.498;2023-05-17T04:01:41;2.58;;;1.40;;
57441;SDS011;43284;47.042;15.498;2023-05-17T04:04:07;5.00;;;1.48;;
57441;SDS011;43284;47.042;15.498;2023-05-17T04:06:33;2.83;;;1.70;;
57441;SDS011;43284;47.042;15.498;2023-05-17T04:08:59;3.75;;;2.25;;
57441;SDS011;43284;47.042;15.498;2023-05-17T04:11:24;4.28;;;1.90;;
57441;SDS011;43284;47.042;15.498;2023-05-17T04:13:51;2.08;;;1.70;;
57441;SDS011;43284;47.042;15.498;2023-05-17T04:16:18;1.95;;;1.50;;
57441;SDS011;43284;47.042;15.498;2023-05-17T04:18:43;5.93;;;2.63;;
57441;SDS011;43284;47.042;15.498;2023-05-17T04:21:09;3.92;;;2.42;;
57441;SDS011;43284;47.042;15.498;2023-05-17T04:23:35;3.60;;;2.60;;
57441;SDS011;43284;47.042;15.498;2023-05-17T04:26:01;4.65;;;3.20;;
57441;SDS011;43284;47.042;15.498;2023-05-17T04:28:28;3.45;;;2.33;;
57441;SDS011;43284;47.042;15.498;2023-05-17T04:30:54;2.92;;;1.33;;
57441;SDS011;43284;47.042;15.498;2023-05-17T04:33:20;1.92;;;1.30;;
57441;SDS011;43284;47.042;15.498;2023-05-17T04:35:45;4.00;;;1.20;;
57441;SDS011;43284;47.042;15.498;2023-05-17T04:38:11;2.97;;;1.65;;
57441;SDS011;43284;47.042;15.498;2023-05-17T04:40:37;7.57;;;1.50;;
57441;SDS011;43284;47.042;15.498;2023-05-17T04:43:03;1.50;;;1.23;;
57441;SDS011;43284;47.042;15.498;2023-05-17T04:45:28;1.60;;;1.10;;
57441;SDS011;43284;47.042;15.498;2023-05-17T04:47:54;2.78;;;1.13;;
57441;SDS011;43284;47.042;15.498;2023-05-17T04:50:20;1.83;;;1.10;;
57441;SDS011;43284;47.042;15.498;2023-05-17T04:52:46;1.33;;;0.80;;
57441;SDS011;43284;47.042;15.498;2023-05-17T04:55:11;0.80;;;0.80;;
57441;SDS011;43284;47.042;15.498;2023-05-17T04:57:37;3.30;;;1.90;;
57441;SDS011;43284;47.042;15.498;2023-05-17T05:00:03;1.30;;;0.85;;
57441;SDS011;43284;47.042;15.498;2023-05-17T05:02:35;0.63;;;0.60;;
57441;SDS011;43284;47.042;15.498;2023-05-17T05:05:02;0.82;;;0.52;;
57441;SDS011;43284;47.042;15.498;2023-05-17T05:07:29;0.65;;;0.50;;
57441;SDS011;43284;47.042;15.498;2023-05-17T05:09:55;2.03;;;0.40;;
57441;SDS011;43284;47.042;15.498;2023-05-17T05:12:21;1.08;;;0.63;;
57441;SDS011;43284;47.042;15.498;2023-05-17T05:14:47;0.30;;;0.30;;
57441;SDS011;43284;47.042;15.498;2023-05-17T05:17:13;1.10;;;0.30;;
57441;SDS011;43284;47.042;15.498;2023-05-17T05:19:38;1.75;;;0.50;;
57441;SDS011;43284;47.042;15.498;2023-05-17T05:22:04;0.32;;;0.32;;
57441;SDS011;43284;47.042;15.498;2023-05-17T05:24:29;0.60;;;0.50;;
57441;SDS011;43284;47.042;15.498;2023-05-17T05:26:55;0.57;;;0.40;;
57441;SDS011;43284;47.042;15.498;2023-05-17T05:29:20;0.85;;;0.40;;
57441;SDS011;43284;47.042;15.498;2023-05-17T05:31:46;0.52;;;0.40;;
57441;SDS011;43284;47.042;15.498;2023-05-17T05:34:11;0.35;;;0.30;;
57441;SDS011;43284;47.042;15.498;2023-05-17T05:36:37;1.02;;;0.75;;
57441;SDS011;43284;47.042;15.498;2023-05-17T05:39:03;0.82;;;0.55;;
57441;SDS011;43284;47.042;15.498;2023-05-17T05:41:28;3.90;;;0.80;;
57441;SDS011;43284;47.042;15.498;2023-05-17T05:43:54;0.93;;;0.65;;
57441;SDS011;43284;47.042;15.498;2023-05-17T05:46:19;1.13;;;1.02;;
57441;SDS011;43284;47.042;15.498;2023-05-17T05:48:45;1.30;;;0.90;;
57441;SDS011;43284;47.042;15.498;2023-05-17T05:51:10;1.02;;;0.80;;
57441;SDS011;43284;47.042;15.498;2023-05-17T05:53:37;1.17;;;0.70;;
57441;SDS011;43284;47.042;15.498;2023-05-17T05:56:02;0.90;;;0.63;;
57441;SDS011;43284;47.042;15.498;2023-05-17T05:58:28;2.15;;;1.15;;
57441;SDS011;43284;47.042;15.498;2023-05-17T06:00:55;1.33;;;0.88;;
57441;SDS011;43284;47.042;15.498;2023-05-17T06:03:21;2.00;;;0.70;;
57441;SDS011;43284;47.042;15.498;2023-05-17T06:05:47;2.45;;;1.20;;
57441;SDS011;43284;47.042;15.498;2023-05-17T06:08:13;2.42;;;1.00;;
57441;SDS011;43284;47.042;15.498;2023-05-17T06:10:38;1.55;;;0.73;;
57441;SDS011;43284;47.042;15.498;2023-05-17T06:13:03;0.40;;;0.32;;
57441;SDS011;43284;47.042;15.498;2023-05-17T06:15:29;0.28;;;0.28;;
57441;SDS011;43284;47.042;15.498;2023-05-17T06:17:55;3.20;;;1.52;;
57441;SDS011;43284;47.042;15.498;2023-05-17T06:20:20;4.88;;;1.10;;
57441;SDS011;43284;47.042;15.498;2023-05-17T06:22:46;1.77;;;1.10;;
57441;SDS011;43284;47.042;15.498;2023-05-17T06:25:11;1.23;;;0.68;;
57441;SDS011;43284;47.042;15.498;2023-05-17T06:27:37;2.15;;;0.50;;
57441;SDS011;43284;47.042;15.498;2023-05-17T06:30:03;1.42;;;0.60;;
57441;SDS011;43284;47.042;15.498;2023-05-17T06:32:29;0.20;;;0.20;;
57441;SDS011;43284;47.042;15.498;2023-05-17T06:34:55;1.60;;;0.73;;
57441;SDS011;43284;47.042;15.498;2023-05-17T06:37:21;1.98;;;0.73;;
57441;SDS011;43284;47.042;15.498;2023-05-17T06:39:46;2.92;;;1.05;;
57441;SDS011;43284;47.042;15.498;2023-05-17T06:42:12;0.93;;;0.60;;
57441;SDS011;43284;47.042;15.498;2023-05-17T06:44:38;6.07;;;1.20;;
57441;SDS011;43284;47.042;15.498;2023-05-17T06:47:03;1.38;;;0.60;;
57441;SDS011;43284;47.042;15.498;2023-05-17T06:49:29;0.43;;;0.40;;
57441;SDS011;43284;47.042;15.498;2023-05-17T06:51:54;2.25;;;1.17;;
57441;SDS011;43284;47.042;15.498;2023-05-17T06:54:23;2.25;;;1.20;;
57441;SDS011;43284;47.042;15.498;2023-05-17T06:56:49;0.88;;;0.50;;
57441;SDS011;43284;47.042;15.498;2023-05-17T06:59:14;0.50;;;0.35;;
57441;SDS011;43284;47.042;15.498;2023-05-17T07:01:40;2.05;;;0.40;;
57441;SDS011;43284;47.042;15.498;2023-05-17T07:04:06;0.73;;;0.40;;
57441;SDS011;43284;47.042;15.498;2023-05-17T07:06:31;1.05;;;0.30;;
57441;SDS011;43284;47.042;15.498;2023-05-17T07:08:57;1.23;;;0.40;;
57441;SDS011;43284;47.042;15.498;2023-05-17T07:11:22;0.95;;;0.30;;
57441;SDS011;43284;47.042;15.498;2023-05-17T07:13:48;2.30;;;0.13;;
57441;SDS011;43284;47.042;15.498;2023-05-17T07:16:13;0.00;;;0.00;;
57441;SDS011;43284;47.042;15.498;2023-05-17T07:18:39;3.47;;;0.40;;
57441;SDS011;43284;47.042;15.498;2023-05-17T07:21:04;0.40;;;0.10;;
57441;SDS011;43284;47.042;15.498;2023-05-17T07:23:30;1.05;;;0.30;;
57441;SDS011;43284;47.042;15.498;2023-05-17T07:25:55;0.57;;;0.30;;
57441;SDS011;43284;47.042;15.498;2023-05-17T07:28:21;0.43;;;0.28;;
57441;SDS011;43284;47.042;15.498;2023-05-17T07:30:46;0.35;;;0.35;;
57441;SDS011;43284;47.042;15.498;2023-05-17T07:33:12;0.20;;;0.20;;
57441;SDS011;43284;47.042;15.498;2023-05-17T07:35:37;0.13;;;0.00;;
57441;SDS011;43284;47.042;15.498;2023-05-17T07:38:03;0.10;;;0.10;;
57441;SDS011;43284;47.042;15.498;2023-05-17T07:40:28;0.10;;;0.10;;
57441;SDS011;43284;47.042;15.498;2023-05-17T07:42:53;0.10;;;0.08;;
57441;SDS011;43284;47.042;15.498;2023-05-17T07:45:19;1.48;;;0.22;;
57441;SDS011;43284;47.042;15.498;2023-05-17T07:47:45;0.20;;;0.20;;
57441;SDS011;43284;47.042;15.498;2023-05-17T07:50:10;1.15;;;0.20;;
57441;SDS011;43284;47.042;15.498;2023-05-17T07:52:36;0.47;;;0.00;;
57441;SDS011;43284;47.042;15.498;2023-05-17T07:55:02;0.22;;;0.13;;
57441;SDS011;43284;47.042;15.498;2023-05-17T07:57:29;0.20;;;0.10;;
57441;SDS011;43284;47.042;15.498;2023-05-17T07:59:55;0.13;;;0.10;;
57441;SDS011;43284;47.042;15.498;2023-05-17T08:02:20;0.10;;;0.10;;
57441;SDS011;43284;47.042;15.498;2023-05-17T08:04:46;0.30;;;0.20;;
57441;SDS011;43284;47.042;15.498;2023-05-17T08:07:11;0.17;;;0.13;;
57441;SDS011;43284;47.042;15.498;2023-05-17T08:09:37;0.05;;;0.05;;
57441;SDS011;43284;47.042;15.498;2023-05-17T08:12:04;1.65;;;0.10;;
57441;SDS011;43284;47.042;15.498;2023-05-17T08:14:30;0.57;;;0.10;;
57441;SDS011;43284;47.042;15.498;2023-05-17T08:16:55;0.20;;;0.15;;
57441;SDS011;43284;47.042;15.498;2023-05-17T08:19:21;0.50;;;0.10;;
57441;SDS011;43284;47.042;15.498;2023-05-17T08:21:46;0.00;;;0.00;;
57441;SDS011;43284;47.042;15.498;2023-05-17T08:24:13;0.20;;;0.03;;
57441;SDS011;43284;47.042;15.498;2023-05-17T08:26:39;0.08;;;0.08;;
57441;SDS011;43284;47.042;15.498;2023-05-17T08:29:04;2.42;;;0.00;;
57441;SDS011;43284;47.042;15.498;2023-05-17T08:31:30;0.10;;;0.10;;
57441;SDS011;43284;47.042;15.498;2023-05-17T08:33:56;2.63;;;0.25;;
57441;SDS011;43284;47.042;15.498;2023-05-17T08:36:22;0.10;;;0.10;;
57441;SDS011;43284;47.042;15.498;2023-05-17T08:38:48;0.30;;;0.10;;
57441;SDS011;43284;47.042;15.498;2023-05-17T08:41:14;0.17;;;0.00;;
57441;SDS011;43284;47.042;15.498;2023-05-17T08:43:40;0.10;;;0.05;;
57441;SDS011;43284;47.042;15.498;2023-05-17T08:46:06;0.10;;;0.10;;
57441;SDS011;43284;47.042;15.498;2023-05-17T08:48:34;1.17;;;0.28;;
57441;SDS011;43284;47.042;15.498;2023-05-17T08:51:02;1.60;;;0.10;;
57441;SDS011;43284;47.042;15.498;2023-05-17T08:53:28;0.00;;;0.00;;
57441;SDS011;43284;47.042;15.498;2023-05-17T08:55:56;0.20;;;0.20;;
57441;SDS011;43284;47.042;15.498;2023-05-17T08:58:25;0.10;;;0.10;;
57441;SDS011;43284;47.042;15.498;2023-05-17T09:00:53;0.10;;;0.10;;
57441;SDS011;43284;47.042;15.498;2023-05-17T09:03:21;0.55;;;0.55;;
57441;SDS011;43284;47.042;15.498;2023-05-17T09:05:51;0.45;;;0.20;;
57441;SDS011;43284;47.042;15.498;2023-05-17T09:08:21;0.05;;;0.00;;
57441;SDS011;43284;47.042;15.498;2023-05-17T09:10:47;0.57;;;0.10;;
57441;SDS011;43284;47.042;15.498;2023-05-17T09:13:13;0.30;;;0.20;;
57441;SDS011;43284;47.042;15.498;2023-05-17T09:15:42;0.10;;;0.10;;
57441;SDS011;43284;47.042;15.498;2023-05-17T09:18:11;0.60;;;0.20;;
57441;SDS011;43284;47.042;15.498;2023-05-17T09:20:37;0.20;;;0.10;;
57441;SDS011;43284;47.042;15.498;2023-05-17T09:23:07;0.60;;;0.20;;
57441;SDS011;43284;47.042;15.498;2023-05-17T09:25:39;1.55;;;0.10;;
57441;SDS011;43284;47.042;15.498;2023-05-17T09:28:11;1.85;;;0.20;;
57441;SDS011;43284;47.042;15.498;2023-05-17T09:30:37;0.40;;;0.20;;
57441;SDS011;43284;47.042;15.498;2023-05-17T09:33:07;0.08;;;0.03;;
57441;SDS011;43284;47.042;15.498;2023-05-17T09:35:36;0.00;;;0.00;;
57441;SDS011;43284;47.042;15.498;2023-05-17T09:40:33;0.30;;;0.30;;
57441;SDS011;43284;47.042;15.498;2023-05-17T09:43:02;0.38;;;0.10;;
57441;SDS011;43284;47.042;15.498;2023-05-17T09:45:30;0.17;;;0.15;;
57441;SDS011;43284;47.042;15.498;2023-05-17T09:47:56;0.00;;;0.00;;
57441;SDS011;43284;47.042;15.498;2023-05-17T09:50:21;0.20;;;0.10;;
57441;SDS011;43284;47.042;15.498;2023-05-17T09:52:47;0.65;;;0.20;;
57441;SDS011;43284;47.042;15.498;2023-05-17T09:55:12;0.98;;;0.20;;
57441;SDS011;43284;47.042;15.498;2023-05-17T09:57:40;0.70;;;0.40;;
57441;SDS011;43284;47.042;15.498;2023-05-17T10:00:06;0.55;;;0.20;;
57441;SDS011;43284;47.042;15.498;2023-05-17T10:02:36;1.73;;;0.20;;
57441;SDS011;43284;47.042;15.498;2023-05-17T10:05:05;0.32;;;0.20;;
57441;SDS011;43284;47.042;15.498;2023-05-17T10:07:36;0.80;;;0.20;;
57441;SDS011;43284;47.042;15.498;2023-05-17T10:10:02;1.10;;;0.22;;
57441;SDS011;43284;47.042;15.498;2023-05-17T10:12:27;0.10;;;0.10;;
57441;SDS011;43284;47.042;15.498;2023-05-17T10:14:54;0.30;;;0.20;;
57441;SDS011;43284;47.042;15.498;2023-05-17T10:17:20;0.20;;;0.20;;
57441;SDS011;43284;47.042;15.498;2023-05-17T10:19:47;1.27;;;0.10;;
57441;SDS011;43284;47.042;15.498;2023-05-17T10:22:13;0.20;;;0.10;;
57441;SDS011;43284;47.042;15.498;2023-05-17T10:24:42;0.40;;;0.22;;
57441;SDS011;43284;47.042;15.498;2023-05-17T10:27:08;0.00;;;0.00;;
57441;SDS011;43284;47.042;15.498;2023-05-17T10:29:33;0.10;;;0.08;;
57441;SDS011;43284;47.042;15.498;2023-05-17T10:32:03;3.15;;;0.40;;
57441;SDS011;43284;47.042;15.498;2023-05-17T10:34:32;0.15;;;0.15;;
57441;SDS011;43284;47.042;15.498;2023-05-17T10:37:00;0.68;;;0.10;;
57441;SDS011;43284;47.042;15.498;2023-05-17T10:39:26;0.10;;;0.08;;
57441;SDS011;43284;47.042;15.498;2023-05-17T10:41:52;0.00;;;0.00;;
57441;SDS011;43284;47.042;15.498;2023-05-17T10:44:20;0.32;;;0.10;;
57441;SDS011;43284;47.042;15.498;2023-05-17T10:46:50;0.20;;;0.10;;
57441;SDS011;43284;47.042;15.498;2023-05-17T10:51:50;0.85;;;0.10;;
57441;SDS011;43284;47.042;15.498;2023-05-17T10:54:15;0.75;;;0.00;;
57441;SDS011;43284;47.042;15.498;2023-05-17T10:56:51;0.30;;;0.10;;
57441;SDS011;43284;47.042;15.498;2023-05-17T11:04:34;0.30;;;0.10;;
57441;SDS011;43284;47.042;15.498;2023-05-17T11:12:36;0.55;;;0.10;;
57441;SDS011;43284;47.042;15.498;2023-05-17T11:15:03;0.70;;;0.22;;
57441;SDS011;43284;47.042;15.498;2023-05-17T11:22:58;0.50;;;0.30;;
57441;SDS011;43284;47.042;15.498;2023-05-17T11:25:30;0.73;;;0.30;;
57441;SDS011;43284;47.042;15.498;2023-05-17T11:27:59;0.55;;;0.40;;
57441;SDS011;43284;47.042;15.498;2023-05-17T11:30:31;1.02;;;0.30;;
57441;SDS011;43284;47.042;15.498;2023-05-17T11:35:37;0.55;;;0.40;;
57441;SDS011;43284;47.042;15.498;2023-05-17T11:38:22;0.22;;;0.20;;
57441;SDS011;43284;47.042;15.498;2023-05-17T11:40:52;1.27;;;0.38;;
57441;SDS011;43284;47.042;15.498;2023-05-17T11:43:19;0.17;;;0.17;;
57441;SDS011;43284;47.042;15.498;2023-05-17T11:45:50;4.13;;;0.22;;
57441;SDS011;43284;47.042;15.498;2023-05-17T11:48:20;0.20;;;0.10;;
57441;SDS011;43284;47.042;15.498;2023-05-17T11:50:47;1.08;;;0.20;;
57441;SDS011;43284;47.042;15.498;2023-05-17T11:53:14;0.30;;;0.08;;
57441;SDS011;43284;47.042;15.498;2023-05-17T11:55:40;0.00;;;0.00;;
57441;SDS011;43284;47.042;15.498;2023-05-17T11:58:07;1.75;;;0.17;;
57441;SDS011;43284;47.042;15.498;2023-05-17T12:00:35;0.28;;;0.10;;
57441;SDS011;43284;47.042;15.498;2023-05-17T12:03:18;3.60;;;0.20;;
57441;SDS011;43284;47.042;15.498;2023-05-17T12:05:54;0.20;;;0.20;;
57441;SDS011;43284;47.042;15.498;2023-05-17T12:08:28;0.10;;;0.10;;
57441;SDS011;43284;47.042;15.498;2023-05-17T12:10:56;0.38;;;0.20;;
57441;SDS011;43284;47.042;15.498;2023-05-17T12:13:22;0.20;;;0.03;;
57441;SDS011;43284;47.042;15.498;2023-05-17T12:15:50;2.88;;;0.20;;
57441;SDS011;43284;47.042;15.498;2023-05-17T12:18:40;2.63;;;0.30;;
57441;SDS011;43284;47.042;15.498;2023-05-17T12:21:08;0.40;;;0.20;;
57441;SDS011;43284;47.042;15.498;2023-05-17T12:23:38;0.00;;;0.00;;
57441;SDS011;43284;47.042;15.498;2023-05-17T12:26:15;0.68;;;0.10;;
57441;SDS011;43284;47.042;15.498;2023-05-17T12:28:42;0.10;;;0.10;;
57441;SDS011;43284;47.042;15.498;2023-05-17T12:31:14;0.32;;;0.20;;
57441;SDS011;43284;47.042;15.498;2023-05-17T12:33:43;0.30;;;0.20;;
57441;SDS011;43284;47.042;15.498;2023-05-17T12:36:11;0.30;;;0.30;;
57441;SDS011;43284;47.042;15.498;2023-05-17T12:38:41;0.03;;;0.03;;
57441;SDS011;43284;47.042;15.498;2023-05-17T12:41:10;0.45;;;0.20;;
57441;SDS011;43284;47.042;15.498;2023-05-17T12:43:37;0.20;;;0.20;;
57441;SDS011;43284;47.042;15.498;2023-05-17T12:46:16;0.30;;;0.10;;
57441;SDS011;43284;47.042;15.498;2023-05-17T12:48:43;2.55;;;1.85;;
57441;SDS011;43284;47.042;15.498;2023-05-17T12:51:11;0.20;;;0.20;;
57441;SDS011;43284;47.042;15.498;2023-05-17T12:56:07;0.15;;;0.15;;
57441;SDS011;43284;47.042;15.498;2023-05-17T12:58:40;0.10;;;0.10;;
57441;SDS011;43284;47.042;15.498;2023-05-17T13:01:05;0.13;;;0.10;;
57441;SDS011;43284;47.042;15.498;2023-05-17T13:03:32;0.30;;;0.22;;
57441;SDS011;43284;47.042;15.498;2023-05-17T13:06:02;0.20;;;0.20;;
57441;SDS011;43284;47.042;15.498;2023-05-17T13:08:29;3.40;;;0.30;;
57441;SDS011;43284;47.042;15.498;2023-05-17T13:11:11;0.20;;;0.20;;
57441;SDS011;43284;47.042;15.498;2023-05-17T13:13:38;0.47;;;0.32;;
57441;SDS011;43284;47.042;15.498;2023-05-17T13:16:04;1.20;;;0.30;;
57441;SDS011;43284;47.042;15.498;2023-05-17T13:18:30;1.25;;;0.30;;
57441;SDS011;43284;47.042;15.498;2023-05-17T13:20:59;1.98;;;0.38;;
57441;SDS011;43284;47.042;15.498;2023-05-17T13:23:25;0.40;;;0.40;;
57441;SDS011;43284;47.042;15.498;2023-05-17T13:25:51;0.70;;;0.60;;
57441;SDS011;43284;47.042;15.498;2023-05-17T13:28:18;0.82;;;0.50;;
57441;SDS011;43284;47.042;15.498;2023-05-17T13:30:44;2.60;;;0.52;;
57441;SDS011;43284;47.042;15.498;2023-05-17T13:33:15;0.40;;;0.40;;
57441;SDS011;43284;47.042;15.498;2023-05-17T13:35:41;1.23;;;0.50;;
57441;SDS011;43284;47.042;15.498;2023-05-17T13:38:07;0.50;;;0.45;;
57441;SDS011;43284;47.042;15.498;2023-05-17T13:40:32;0.52;;;0.45;;
57441;SDS011;43284;47.042;15.498;2023-05-17T13:42:58;0.95;;;0.50;;
57441;SDS011;43284;47.042;15.498;2023-05-17T13:45:23;1.30;;;0.70;;
57441;SDS011;43284;47.042;15.498;2023-05-17T13:47:49;2.22;;;0.60;;
57441;SDS011;43284;47.042;15.498;2023-05-17T13:50:14;0.93;;;0.60;;
57441;SDS011;43284;47.042;15.498;2023-05-17T13:52:41;1.10;;;0.50;;
57441;SDS011;43284;47.042;15.498;2023-05-17T13:55:07;2.15;;;0.70;;
57441;SDS011;43284;47.042;15.498;2023-05-17T13:57:33;2.00;;;0.73;;
57441;SDS011;43284;47.042;15.498;2023-05-17T13:59:59;0.73;;;0.60;;
57441;SDS011;43284;47.042;15.498;2023-05-17T14:02:24;0.90;;;0.70;;
57441;SDS011;43284;47.042;15.498;2023-05-17T14:04:50;2.30;;;0.60;;
57441;SDS011;43284;47.042;15.498;2023-05-17T14:07:15;3.47;;;0.68;;
57441;SDS011;43284;47.042;15.498;2023-05-17T14:09:41;0.95;;;0.60;;
57441;SDS011;43284;47.042;15.498;2023-05-17T14:12:06;0.77;;;0.50;;
57441;SDS011;43284;47.042;15.498;2023-05-17T14:14:32;0.50;;;0.50;;
57441;SDS011;43284;47.042;15.498;2023-05-17T14:16:57;0.88;;;0.60;;
57441;SDS011;43284;47.042;15.498;2023-05-17T14:19:23;0.75;;;0.43;;
57441;SDS011;43284;47.042;15.498;2023-05-17T14:21:48;1.45;;;0.50;;
57441;SDS011;43284;47.042;15.498;2023-05-17T14:24:14;0.82;;;0.57;;
57441;SDS011;43284;47.042;15.498;2023-05-17T14:26:40;0.43;;;0.38;;
57441;SDS011;43284;47.042;15.498;2023-05-17T14:29:06;0.40;;;0.40;;
57441;SDS011;43284;47.042;15.498;2023-05-17T14:31:31;0.82;;;0.50;;
57441;SDS011;43284;47.042;15.498;2023-05-17T14:33:57;0.98;;;0.60;;
57441;SDS011;43284;47.042;15.498;2023-05-17T14:36:25;2.03;;;0.52;;
57441;SDS011;43284;47.042;15.498;2023-05-17T14:38:51;1.05;;;0.60;;
57441;SDS011;43284;47.042;15.498;2023-05-17T14:41:16;0.30;;;0.30;;
57441;SDS011;43284;47.042;15.498;2023-05-17T14:43:42;2.20;;;0.40;;
57441;SDS011;43284;47.042;15.498;2023-05-17T14:46:08;0.95;;;0.47;;
57441;SDS011;43284;47.042;15.498;2023-05-17T14:48:33;0.70;;;0.40;;
57441;SDS011;43284;47.042;15.498;2023-05-17T14:50:59;1.00;;;0.40;;
57441;SDS011;43284;47.042;15.498;2023-05-17T14:53:27;0.93;;;0.60;;
57441;SDS011;43284;47.042;15.498;2023-05-17T14:55:53;0.93;;;0.50;;
57441;SDS011;43284;47.042;15.498;2023-05-17T14:58:19;0.68;;;0.50;;
57441;SDS011;43284;47.042;15.498;2023-05-17T15:00:46;0.80;;;0.70;;
57441;SDS011;43284;47.042;15.498;2023-05-17T15:03:12;0.73;;;0.52;;
57441;SDS011;43284;47.042;15.498;2023-05-17T15:05:38;1.67;;;0.90;;
57441;SDS011;43284;47.042;15.498;2023-05-17T15:08:04;1.33;;;0.57;;
57441;SDS011;43284;47.042;15.498;2023-05-17T15:10:30;0.73;;;0.40;;
57441;SDS011;43284;47.042;15.498;2023-05-17T15:12:55;1.15;;;0.60;;
57441;SDS011;43284;47.042;15.498;2023-05-17T15:15:21;1.23;;;0.50;;